sensor_id;sensor_type;location;lat;lon;timestamp;P1;durP1;ratioP1;P2;durP2;ratioP2
64842;SDS011;51310;52.198;5.422;2022-07-26T00:02:23;17.85;;;2.92;;
64842;SDS011;51310;52.198;5.422;2022-07-26T00:04:49;14.20;;;3.20;;
64842;SDS011;51310;52.198;5.422;2022-07-26T00:07:15;20.05;;;3.92;;
64842;SDS011;51310;52.198;5.422;2022-07-26T00:09:41;14.23;;;4.03;;
64842;SDS011;51310;52.198;5.422;2022-07-26T00:12:07;17.45;;;3.40;;
64842;SDS011;51310;52.198;5.422;2022-07-26T00:14:34;16.35;;;3.80;;
64842;SDS011;51310;52.198;5.422;2022-07-26T00:17:00;17.00;;;3.67;;
64842;SDS011;51310;52.198;5.422;2022-07-26T00:19:28;15.15;;;3.45;;
64842;SDS011;51310;52.198;5.422;2022-07-26T00:21:54;14.63;;;3.47;;
64842;SDS011;51310;52.198;5.422;2022-07-26T00:24:39;22.15;;;4.47;;
64842;SDS011;51310;52.198;5.422;2022-07-26T00:27:04;18.73;;;3.33;;
64842;SDS011;51310;52.198;5.422;2022-07-26T00:29:30;23.13;;;4.00;;
64842;SDS011;51310;52.198;5.422;2022-07-26T00:31:56;20.13;;;3.45;;
64842;SDS011;51310;52.198;5.422;2022-07-26T00:34:22;15.80;;;3.72;;
64842;SDS011;51310;52.198;5.422;2022-07-26T00:36:48;15.13;;;2.88;;
64842;SDS011;51310;52.198;5.422;2022-07-26T00:39:14;17.83;;;3.67;;
64842;SDS011;51310;52.198;5.422;2022-07-26T00:41:40;21.35;;;3.53;;
64842;SDS011;51310;52.198;5.422;2022-07-26T00:44:09;20.25;;;4.28;;
64842;SDS011;51310;52.198;5.422;2022-07-26T00:46:35;21.80;;;3.70;;
64842;SDS011;51310;52.198;5.422;2022-07-26T00:49:01;20.43;;;3.83;;
64842;SDS011;51310;52.198;5.422;2022-07-26T00:51:27;15.53;;;3.37;;
64842;SDS011;51310;52.198;5.422;2022-07-26T00:53:53;18.77;;;3.20;;
64842;SDS011;51310;52.198;5.422;2022-07-26T00:56:20;19.88;;;4.63;;
64842;SDS011;51310;52.198;5.422;2022-07-26T00:58:46;19.20;;;3.58;;
64842;SDS011;51310;52.198;5.422;2022-07-26T01:01:12;16.85;;;3.00;;
64842;SDS011;51310;52.198;5.422;2022-07-26T01:03:38;20.92;;;3.08;;
64842;SDS011;51310;52.198;5.422;2022-07-26T01:06:04;15.25;;;3.47;;
64842;SDS011;51310;52.198;5.422;2022-07-26T01:08:30;16.42;;;3.65;;
64842;SDS011;51310;52.198;5.422;2022-07-26T01:10:56;18.45;;;3.92;;
64842;SDS011;51310;52.198;5.422;2022-07-26T01:13:23;17.58;;;3.75;;
64842;SDS011;51310;52.198;5.422;2022-07-26T01:15:49;18.73;;;3.45;;
64842;SDS011;51310;52.198;5.422;2022-07-26T01:18:15;14.60;;;3.53;;
64842;SDS011;51310;52.198;5.422;2022-07-26T01:20:41;17.42;;;3.33;;
64842;SDS011;51310;52.198;5.422;2022-07-26T01:23:08;22.15;;;3.88;;
64842;SDS011;51310;52.198;5.422;2022-07-26T01:25:35;22.77;;;4.40;;
64842;SDS011;51310;52.198;5.422;2022-07-26T01:28:03;16.15;;;3.13;;
64842;SDS011;51310;52.198;5.422;2022-07-26T01:30:29;17.00;;;3.65;;
64842;SDS011;51310;52.198;5.422;2022-07-26T01:32:56;13.23;;;3.55;;
64842;SDS011;51310;52.198;5.422;2022-07-26T01:35:22;15.68;;;3.80;;
64842;SDS011;51310;52.198;5.422;2022-07-26T01:37:48;15.43;;;4.23;;
64842;SDS011;51310;52.198;5.422;2022-07-26T01:40:14;11.83;;;2.83;;
64842;SDS011;51310;52.198;5.422;2022-07-26T01:42:40;12.48;;;3.28;;
64842;SDS011;51310;52.198;5.422;2022-07-26T01:45:09;12.82;;;3.42;;
64842;SDS011;51310;52.198;5.422;2022-07-26T01:47:37;11.95;;;3.05;;
64842;SDS011;51310;52.198;5.422;2022-07-26T01:50:04;15.75;;;3.10;;
64842;SDS011;51310;52.198;5.422;2022-07-26T01:52:33;13.60;;;3.05;;
64842;SDS011;51310;52.198;5.422;2022-07-26T01:54:59;17.98;;;3.40;;
64842;SDS011;51310;52.198;5.422;2022-07-26T01:57:25;10.52;;;2.40;;
64842;SDS011;51310;52.198;5.422;2022-07-26T01:59:51;13.27;;;2.90;;
64842;SDS011;51310;52.198;5.422;2022-07-26T02:02:19;14.50;;;3.53;;
64842;SDS011;51310;52.198;5.422;2022-07-26T02:04:45;16.07;;;2.50;;
64842;SDS011;51310;52.198;5.422;2022-07-26T02:07:23;9.17;;;3.03;;
64842;SDS011;51310;52.198;5.422;2022-07-26T02:09:55;9.30;;;2.42;;
64842;SDS011;51310;52.198;5.422;2022-07-26T02:12:23;10.77;;;2.67;;
64842;SDS011;51310;52.198;5.422;2022-07-26T02:14:49;13.48;;;2.60;;
64842;SDS011;51310;52.198;5.422;2022-07-26T02:17:16;12.07;;;2.85;;
64842;SDS011;51310;52.198;5.422;2022-07-26T02:19:42;14.68;;;3.58;;
64842;SDS011;51310;52.198;5.422;2022-07-26T02:22:08;9.48;;;2.60;;
64842;SDS011;51310;52.198;5.422;2022-07-26T02:24:34;7.25;;;2.97;;
64842;SDS011;51310;52.198;5.422;2022-07-26T02:27:01;7.32;;;3.08;;
64842;SDS011;51310;52.198;5.422;2022-07-26T02:29:28;6.85;;;2.50;;
64842;SDS011;51310;52.198;5.422;2022-07-26T02:31:56;9.37;;;2.17;;
64842;SDS011;51310;52.198;5.422;2022-07-26T02:34:23;9.75;;;2.47;;
64842;SDS011;51310;52.198;5.422;2022-07-26T02:36:49;7.32;;;2.22;;
64842;SDS011;51310;52.198;5.422;2022-07-26T02:39:15;12.80;;;2.45;;
64842;SDS011;51310;52.198;5.422;2022-07-26T02:41:42;6.53;;;2.40;;
64842;SDS011;51310;52.198;5.422;2022-07-26T02:44:08;6.03;;;2.10;;
64842;SDS011;51310;52.198;5.422;2022-07-26T02:46:34;5.32;;;2.00;;
64842;SDS011;51310;52.198;5.422;2022-07-26T02:49:00;6.80;;;2.42;;
64842;SDS011;51310;52.198;5.422;2022-07-26T02:51:26;7.68;;;2.10;;
64842;SDS011;51310;52.198;5.422;2022-07-26T02:53:52;4.75;;;2.20;;
64842;SDS011;51310;52.198;5.422;2022-07-26T02:56:19;7.20;;;2.35;;
64842;SDS011;51310;52.198;5.422;2022-07-26T02:58:45;8.30;;;2.80;;
64842;SDS011;51310;52.198;5.422;2022-07-26T03:01:11;8.82;;;2.45;;
64842;SDS011;51310;52.198;5.422;2022-07-26T03:03:37;9.80;;;2.33;;
64842;SDS011;51310;52.198;5.422;2022-07-26T03:06:02;5.35;;;1.85;;
64842;SDS011;51310;52.198;5.422;2022-07-26T03:08:29;6.85;;;2.03;;
64842;SDS011;51310;52.198;5.422;2022-07-26T03:10:54;6.30;;;2.72;;
64842;SDS011;51310;52.198;5.422;2022-07-26T03:13:20;7.57;;;2.40;;
64842;SDS011;51310;52.198;5.422;2022-07-26T03:15:46;7.93;;;1.92;;
64842;SDS011;51310;52.198;5.422;2022-07-26T03:18:12;8.02;;;2.90;;
64842;SDS011;51310;52.198;5.422;2022-07-26T03:20:38;6.32;;;2.03;;
64842;SDS011;51310;52.198;5.422;2022-07-26T03:23:04;8.85;;;2.13;;
64842;SDS011;51310;52.198;5.422;2022-07-26T03:25:30;6.63;;;2.17;;
64842;SDS011;51310;52.198;5.422;2022-07-26T03:27:55;8.63;;;2.25;;
64842;SDS011;51310;52.198;5.422;2022-07-26T03:30:22;5.85;;;2.03;;
64842;SDS011;51310;52.198;5.422;2022-07-26T03:32:48;6.78;;;2.00;;
64842;SDS011;51310;52.198;5.422;2022-07-26T03:35:15;7.85;;;2.90;;
64842;SDS011;51310;52.198;5.422;2022-07-26T03:37:41;4.95;;;1.77;;
64842;SDS011;51310;52.198;5.422;2022-07-26T03:40:07;5.10;;;1.90;;
64842;SDS011;51310;52.198;5.422;2022-07-26T03:42:34;5.35;;;2.33;;
64842;SDS011;51310;52.198;5.422;2022-07-26T03:45:00;6.60;;;2.15;;
64842;SDS011;51310;52.198;5.422;2022-07-26T03:47:27;8.13;;;2.58;;
64842;SDS011;51310;52.198;5.422;2022-07-26T03:49:53;6.85;;;2.05;;
64842;SDS011;51310;52.198;5.422;2022-07-26T03:52:19;6.40;;;1.83;;
64842;SDS011;51310;52.198;5.422;2022-07-26T03:54:45;7.65;;;2.20;;
64842;SDS011;51310;52.198;5.422;2022-07-26T03:57:10;6.63;;;1.85;;
64842;SDS011;51310;52.198;5.422;2022-07-26T03:59:36;2.95;;;1.80;;
64842;SDS011;51310;52.198;5.422;2022-07-26T04:02:02;3.60;;;1.73;;
64842;SDS011;51310;52.198;5.422;2022-07-26T04:04:28;7.75;;;2.25;;
64842;SDS011;51310;52.198;5.422;2022-07-26T04:06:54;7.22;;;2.25;;
64842;SDS011;51310;52.198;5.422;2022-07-26T04:09:23;5.97;;;2.20;;
64842;SDS011;51310;52.198;5.422;2022-07-26T04:11:48;7.10;;;2.30;;
64842;SDS011;51310;52.198;5.422;2022-07-26T04:14:14;7.00;;;2.00;;
64842;SDS011;51310;52.198;5.422;2022-07-26T04:16:41;4.73;;;1.90;;
64842;SDS011;51310;52.198;5.422;2022-07-26T04:19:07;9.27;;;2.67;;
64842;SDS011;51310;52.198;5.422;2022-07-26T04:21:32;5.67;;;2.17;;
64842;SDS011;51310;52.198;5.422;2022-07-26T04:23:59;5.70;;;2.37;;
64842;SDS011;51310;52.198;5.422;2022-07-26T04:26:25;6.90;;;2.13;;
64842;SDS011;51310;52.198;5.422;2022-07-26T04:28:53;7.70;;;2.15;;
64842;SDS011;51310;52.198;5.422;2022-07-26T04:31:19;9.75;;;2.03;;
64842;SDS011;51310;52.198;5.422;2022-07-26T04:33:45;5.97;;;2.20;;
64842;SDS011;51310;52.198;5.422;2022-07-26T04:36:11;8.00;;;2.13;;
64842;SDS011;51310;52.198;5.422;2022-07-26T04:38:37;6.25;;;1.98;;
64842;SDS011;51310;52.198;5.422;2022-07-26T04:41:03;6.88;;;2.13;;
64842;SDS011;51310;52.198;5.422;2022-07-26T04:43:29;6.00;;;2.03;;
64842;SDS011;51310;52.198;5.422;2022-07-26T04:45:55;9.90;;;2.15;;
64842;SDS011;51310;52.198;5.422;2022-07-26T04:48:21;8.38;;;2.42;;
64842;SDS011;51310;52.198;5.422;2022-07-26T04:50:48;10.57;;;2.15;;
64842;SDS011;51310;52.198;5.422;2022-07-26T04:53:14;7.70;;;2.33;;
64842;SDS011;51310;52.198;5.422;2022-07-26T04:55:40;7.07;;;2.90;;
64842;SDS011;51310;52.198;5.422;2022-07-26T04:58:07;7.20;;;2.22;;
64842;SDS011;51310;52.198;5.422;2022-07-26T05:00:34;5.78;;;1.90;;
64842;SDS011;51310;52.198;5.422;2022-07-26T05:03:02;6.23;;;2.47;;
64842;SDS011;51310;52.198;5.422;2022-07-26T05:05:29;6.60;;;1.87;;
64842;SDS011;51310;52.198;5.422;2022-07-26T05:07:58;7.00;;;2.50;;
64842;SDS011;51310;52.198;5.422;2022-07-26T05:10:29;4.90;;;2.47;;
64842;SDS011;51310;52.198;5.422;2022-07-26T05:13:01;11.77;;;2.63;;
64842;SDS011;51310;52.198;5.422;2022-07-26T05:15:30;8.00;;;2.40;;
64842;SDS011;51310;52.198;5.422;2022-07-26T05:18:02;11.82;;;2.90;;
64842;SDS011;51310;52.198;5.422;2022-07-26T05:20:32;8.25;;;2.72;;
64842;SDS011;51310;52.198;5.422;2022-07-26T05:22:59;8.15;;;3.15;;
64842;SDS011;51310;52.198;5.422;2022-07-26T05:25:24;6.20;;;2.10;;
64842;SDS011;51310;52.198;5.422;2022-07-26T05:27:51;5.43;;;2.25;;
64842;SDS011;51310;52.198;5.422;2022-07-26T05:30:17;4.93;;;2.42;;
64842;SDS011;51310;52.198;5.422;2022-07-26T05:32:44;6.45;;;2.58;;
64842;SDS011;51310;52.198;5.422;2022-07-26T05:35:11;5.50;;;1.90;;
64842;SDS011;51310;52.198;5.422;2022-07-26T05:37:37;4.32;;;1.92;;
64842;SDS011;51310;52.198;5.422;2022-07-26T05:40:04;4.60;;;2.30;;
64842;SDS011;51310;52.198;5.422;2022-07-26T05:42:31;7.57;;;2.20;;
64842;SDS011;51310;52.198;5.422;2022-07-26T05:44:57;6.07;;;2.17;;
64842;SDS011;51310;52.198;5.422;2022-07-26T05:47:23;4.95;;;2.40;;
64842;SDS011;51310;52.198;5.422;2022-07-26T05:49:49;7.93;;;2.13;;
64842;SDS011;51310;52.198;5.422;2022-07-26T05:52:14;4.53;;;1.80;;
64842;SDS011;51310;52.198;5.422;2022-07-26T05:54:40;5.57;;;2.75;;
64842;SDS011;51310;52.198;5.422;2022-07-26T05:57:06;7.53;;;2.15;;
64842;SDS011;51310;52.198;5.422;2022-07-26T05:59:32;7.38;;;2.25;;
64842;SDS011;51310;52.198;5.422;2022-07-26T06:01:58;4.47;;;2.13;;
64842;SDS011;51310;52.198;5.422;2022-07-26T06:04:24;6.13;;;2.25;;
64842;SDS011;51310;52.198;5.422;2022-07-26T06:06:51;5.68;;;2.20;;
64842;SDS011;51310;52.198;5.422;2022-07-26T06:09:18;8.30;;;3.00;;
64842;SDS011;51310;52.198;5.422;2022-07-26T06:11:45;5.85;;;2.40;;
64842;SDS011;51310;52.198;5.422;2022-07-26T06:14:10;4.68;;;2.08;;
64842;SDS011;51310;52.198;5.422;2022-07-26T06:16:36;3.70;;;1.73;;
64842;SDS011;51310;52.198;5.422;2022-07-26T06:19:02;7.95;;;1.92;;
64842;SDS011;51310;52.198;5.422;2022-07-26T06:21:28;4.53;;;2.28;;
64842;SDS011;51310;52.198;5.422;2022-07-26T06:23:54;4.97;;;1.90;;
64842;SDS011;51310;52.198;5.422;2022-07-26T06:26:20;5.10;;;1.77;;
64842;SDS011;51310;52.198;5.422;2022-07-26T06:28:47;3.72;;;1.60;;
64842;SDS011;51310;52.198;5.422;2022-07-26T06:31:16;9.73;;;2.15;;
64842;SDS011;51310;52.198;5.422;2022-07-26T06:33:43;5.97;;;2.40;;
64842;SDS011;51310;52.198;5.422;2022-07-26T06:36:09;7.63;;;2.13;;
64842;SDS011;51310;52.198;5.422;2022-07-26T06:38:35;6.35;;;1.77;;
64842;SDS011;51310;52.198;5.422;2022-07-26T06:41:01;6.32;;;1.90;;
64842;SDS011;51310;52.198;5.422;2022-07-26T06:43:27;8.52;;;1.85;;
64842;SDS011;51310;52.198;5.422;2022-07-26T06:45:53;9.90;;;2.15;;
64842;SDS011;51310;52.198;5.422;2022-07-26T06:48:18;10.20;;;3.45;;
64842;SDS011;51310;52.198;5.422;2022-07-26T06:50:44;9.82;;;2.03;;
64842;SDS011;51310;52.198;5.422;2022-07-26T06:53:10;6.57;;;2.10;;
64842;SDS011;51310;52.198;5.422;2022-07-26T06:55:36;9.63;;;1.95;;
64842;SDS011;51310;52.198;5.422;2022-07-26T06:58:02;8.55;;;1.95;;
64842;SDS011;51310;52.198;5.422;2022-07-26T07:00:28;9.40;;;2.80;;
64842;SDS011;51310;52.198;5.422;2022-07-26T07:02:54;9.70;;;2.03;;
64842;SDS011;51310;52.198;5.422;2022-07-26T07:05:20;10.18;;;2.03;;
64842;SDS011;51310;52.198;5.422;2022-07-26T07:07:46;7.63;;;2.33;;
64842;SDS011;51310;52.198;5.422;2022-07-26T07:10:12;4.85;;;1.15;;
64842;SDS011;51310;52.198;5.422;2022-07-26T07:12:38;5.05;;;1.40;;
64842;SDS011;51310;52.198;5.422;2022-07-26T07:15:04;7.13;;;1.40;;
64842;SDS011;51310;52.198;5.422;2022-07-26T07:17:31;6.07;;;1.70;;
64842;SDS011;51310;52.198;5.422;2022-07-26T07:19:57;7.00;;;1.48;;
64842;SDS011;51310;52.198;5.422;2022-07-26T07:22:24;10.55;;;2.20;;
64842;SDS011;51310;52.198;5.422;2022-07-26T07:24:50;7.82;;;1.50;;
64842;SDS011;51310;52.198;5.422;2022-07-26T07:27:16;8.57;;;1.97;;
64842;SDS011;51310;52.198;5.422;2022-07-26T07:29:42;5.87;;;1.53;;
64842;SDS011;51310;52.198;5.422;2022-07-26T07:32:08;8.68;;;1.50;;
64842;SDS011;51310;52.198;5.422;2022-07-26T07:34:34;7.22;;;1.73;;
64842;SDS011;51310;52.198;5.422;2022-07-26T07:37:00;6.03;;;1.43;;
64842;SDS011;51310;52.198;5.422;2022-07-26T07:39:28;3.22;;;1.02;;
64842;SDS011;51310;52.198;5.422;2022-07-26T07:41:54;3.53;;;1.10;;
64842;SDS011;51310;52.198;5.422;2022-07-26T07:44:20;8.00;;;1.27;;
64842;SDS011;51310;52.198;5.422;2022-07-26T07:46:46;6.50;;;1.55;;
64842;SDS011;51310;52.198;5.422;2022-07-26T07:49:12;4.60;;;1.25;;
64842;SDS011;51310;52.198;5.422;2022-07-26T07:51:38;6.45;;;1.00;;
64842;SDS011;51310;52.198;5.422;2022-07-26T07:54:04;2.50;;;0.95;;
64842;SDS011;51310;52.198;5.422;2022-07-26T07:56:30;7.72;;;1.25;;
64842;SDS011;51310;52.198;5.422;2022-07-26T07:58:55;2.67;;;0.63;;
64842;SDS011;51310;52.198;5.422;2022-07-26T08:01:21;6.35;;;1.00;;
64842;SDS011;51310;52.198;5.422;2022-07-26T08:03:47;3.30;;;0.80;;
64842;SDS011;51310;52.198;5.422;2022-07-26T08:06:13;7.53;;;1.17;;
64842;SDS011;51310;52.198;5.422;2022-07-26T08:08:39;4.22;;;0.80;;
64842;SDS011;51310;52.198;5.422;2022-07-26T08:11:05;6.03;;;1.08;;
64842;SDS011;51310;52.198;5.422;2022-07-26T08:13:31;2.22;;;0.70;;
64842;SDS011;51310;52.198;5.422;2022-07-26T08:15:57;6.03;;;0.95;;
64842;SDS011;51310;52.198;5.422;2022-07-26T08:18:22;5.00;;;0.65;;
64842;SDS011;51310;52.198;5.422;2022-07-26T08:20:50;3.30;;;0.80;;
64842;SDS011;51310;52.198;5.422;2022-07-26T08:23:17;4.95;;;0.90;;
64842;SDS011;51310;52.198;5.422;2022-07-26T08:25:45;2.42;;;0.60;;
64842;SDS011;51310;52.198;5.422;2022-07-26T08:28:11;2.95;;;0.63;;
64842;SDS011;51310;52.198;5.422;2022-07-26T08:30:37;3.88;;;0.80;;
64842;SDS011;51310;52.198;5.422;2022-07-26T08:33:03;3.50;;;1.00;;
64842;SDS011;51310;52.198;5.422;2022-07-26T08:35:29;3.70;;;0.80;;
64842;SDS011;51310;52.198;5.422;2022-07-26T08:37:55;4.05;;;1.10;;
64842;SDS011;51310;52.198;5.422;2022-07-26T08:40:22;3.55;;;0.73;;
64842;SDS011;51310;52.198;5.422;2022-07-26T08:42:48;6.10;;;1.15;;
64842;SDS011;51310;52.198;5.422;2022-07-26T08:45:20;5.53;;;1.27;;
64842;SDS011;51310;52.198;5.422;2022-07-26T08:47:52;4.82;;;1.13;;
64842;SDS011;51310;52.198;5.422;2022-07-26T08:50:19;3.90;;;1.10;;
64842;SDS011;51310;52.198;5.422;2022-07-26T08:52:46;3.80;;;0.90;;
64842;SDS011;51310;52.198;5.422;2022-07-26T08:55:18;4.63;;;0.90;;
64842;SDS011;51310;52.198;5.422;2022-07-26T08:57:45;3.67;;;0.80;;
64842;SDS011;51310;52.198;5.422;2022-07-26T09:00:22;4.68;;;0.77;;
64842;SDS011;51310;52.198;5.422;2022-07-26T09:02:53;3.70;;;1.08;;
64842;SDS011;51310;52.198;5.422;2022-07-26T09:07:59;3.55;;;0.90;;
64842;SDS011;51310;52.198;5.422;2022-07-26T09:10:48;5.03;;;0.90;;
64842;SDS011;51310;52.198;5.422;2022-07-26T09:13:14;3.33;;;0.77;;
64842;SDS011;51310;52.198;5.422;2022-07-26T09:15:40;4.00;;;0.98;;
64842;SDS011;51310;52.198;5.422;2022-07-26T09:18:06;4.40;;;0.93;;
64842;SDS011;51310;52.198;5.422;2022-07-26T09:20:53;4.20;;;0.93;;
64842;SDS011;51310;52.198;5.422;2022-07-26T09:23:19;6.50;;;1.50;;
64842;SDS011;51310;52.198;5.422;2022-07-26T09:25:45;5.50;;;0.98;;
64842;SDS011;51310;52.198;5.422;2022-07-26T09:28:28;3.55;;;0.90;;
64842;SDS011;51310;52.198;5.422;2022-07-26T09:30:59;2.95;;;0.90;;
64842;SDS011;51310;52.198;5.422;2022-07-26T09:33:45;4.40;;;0.93;;
64842;SDS011;51310;52.198;5.422;2022-07-26T09:36:14;4.28;;;1.08;;
64842;SDS011;51310;52.198;5.422;2022-07-26T09:38:51;5.40;;;1.17;;
64842;SDS011;51310;52.198;5.422;2022-07-26T09:43:55;9.75;;;1.10;;
64842;SDS011;51310;52.198;5.422;2022-07-26T09:46:25;4.68;;;0.88;;
64842;SDS011;51310;52.198;5.422;2022-07-26T09:48:54;5.10;;;1.00;;
64842;SDS011;51310;52.198;5.422;2022-07-26T09:54:09;2.70;;;0.85;;
64842;SDS011;51310;52.198;5.422;2022-07-26T09:56:46;2.30;;;0.70;;
64842;SDS011;51310;52.198;5.422;2022-07-26T09:59:16;3.90;;;0.80;;
64842;SDS011;51310;52.198;5.422;2022-07-26T10:01:45;10.25;;;1.10;;
64842;SDS011;51310;52.198;5.422;2022-07-26T10:04:15;7.05;;;1.20;;
64842;SDS011;51310;52.198;5.422;2022-07-26T10:06:42;3.13;;;0.90;;
64842;SDS011;51310;52.198;5.422;2022-07-26T10:09:09;3.35;;;0.68;;
64842;SDS011;51310;52.198;5.422;2022-07-26T10:19:53;4.70;;;0.90;;
64842;SDS011;51310;52.198;5.422;2022-07-26T10:24:55;5.18;;;0.80;;
64842;SDS011;51310;52.198;5.422;2022-07-26T10:27:42;3.95;;;0.90;;
64842;SDS011;51310;52.198;5.422;2022-07-26T10:41:01;7.18;;;1.40;;
64842;SDS011;51310;52.198;5.422;2022-07-26T10:43:32;6.43;;;1.25;;
64842;SDS011;51310;52.198;5.422;2022-07-26T10:48:56;6.28;;;1.30;;
64842;SDS011;51310;52.198;5.422;2022-07-26T10:51:33;9.30;;;1.70;;
64842;SDS011;51310;52.198;5.422;2022-07-26T10:54:05;9.32;;;1.50;;
64842;SDS011;51310;52.198;5.422;2022-07-26T10:56:37;5.28;;;1.67;;
64842;SDS011;51310;52.198;5.422;2022-07-26T10:59:03;6.00;;;0.95;;
64842;SDS011;51310;52.198;5.422;2022-07-26T11:01:37;6.30;;;1.45;;
64842;SDS011;51310;52.198;5.422;2022-07-26T11:04:19;7.13;;;1.65;;
64842;SDS011;51310;52.198;5.422;2022-07-26T11:06:46;5.67;;;1.30;;
64842;SDS011;51310;52.198;5.422;2022-07-26T11:09:13;5.15;;;1.02;;
64842;SDS011;51310;52.198;5.422;2022-07-26T11:11:39;10.70;;;1.50;;
64842;SDS011;51310;52.198;5.422;2022-07-26T11:14:08;6.20;;;1.33;;
64842;SDS011;51310;52.198;5.422;2022-07-26T11:19:22;7.43;;;2.00;;
64842;SDS011;51310;52.198;5.422;2022-07-26T11:21:56;6.60;;;0.98;;
64842;SDS011;51310;52.198;5.422;2022-07-26T11:24:25;3.88;;;0.70;;
64842;SDS011;51310;52.198;5.422;2022-07-26T11:26:52;3.78;;;0.73;;
64842;SDS011;51310;52.198;5.422;2022-07-26T11:29:26;4.07;;;1.25;;
64842;SDS011;51310;52.198;5.422;2022-07-26T11:31:54;4.00;;;1.00;;
64842;SDS011;51310;52.198;5.422;2022-07-26T11:34:21;5.53;;;1.17;;
64842;SDS011;51310;52.198;5.422;2022-07-26T11:36:50;4.40;;;0.90;;
64842;SDS011;51310;52.198;5.422;2022-07-26T11:39:24;6.80;;;1.27;;
64842;SDS011;51310;52.198;5.422;2022-07-26T11:41:58;5.90;;;1.35;;
64842;SDS011;51310;52.198;5.422;2022-07-26T11:44:29;6.28;;;1.27;;
64842;SDS011;51310;52.198;5.422;2022-07-26T11:46:55;7.25;;;2.08;;
64842;SDS011;51310;52.198;5.422;2022-07-26T11:49:22;7.70;;;1.60;;
64842;SDS011;51310;52.198;5.422;2022-07-26T11:51:55;11.07;;;1.53;;
64842;SDS011;51310;52.198;5.422;2022-07-26T11:54:25;7.65;;;2.15;;
64842;SDS011;51310;52.198;5.422;2022-07-26T11:56:59;6.40;;;1.35;;
64842;SDS011;51310;52.198;5.422;2022-07-26T11:59:32;10.63;;;2.25;;
64842;SDS011;51310;52.198;5.422;2022-07-26T12:02:02;8.50;;;1.52;;
64842;SDS011;51310;52.198;5.422;2022-07-26T12:04:32;7.95;;;2.15;;
64842;SDS011;51310;52.198;5.422;2022-07-26T12:07:08;8.60;;;1.60;;
64842;SDS011;51310;52.198;5.422;2022-07-26T12:09:41;7.82;;;1.50;;
64842;SDS011;51310;52.198;5.422;2022-07-26T12:12:31;7.43;;;1.35;;
64842;SDS011;51310;52.198;5.422;2022-07-26T12:14:57;11.82;;;2.58;;
64842;SDS011;51310;52.198;5.422;2022-07-26T12:17:30;7.47;;;1.83;;
64842;SDS011;51310;52.198;5.422;2022-07-26T12:20:16;5.97;;;1.38;;
64842;SDS011;51310;52.198;5.422;2022-07-26T12:22:58;8.75;;;1.65;;
64842;SDS011;51310;52.198;5.422;2022-07-26T12:25:28;6.78;;;1.60;;
64842;SDS011;51310;52.198;5.422;2022-07-26T12:27:54;9.02;;;1.50;;
64842;SDS011;51310;52.198;5.422;2022-07-26T12:30:21;10.95;;;1.83;;
64842;SDS011;51310;52.198;5.422;2022-07-26T12:32:48;7.93;;;1.70;;
64842;SDS011;51310;52.198;5.422;2022-07-26T12:35:31;13.15;;;2.63;;
64842;SDS011;51310;52.198;5.422;2022-07-26T12:37:59;11.07;;;1.75;;
64842;SDS011;51310;52.198;5.422;2022-07-26T12:40:27;8.43;;;1.50;;
64842;SDS011;51310;52.198;5.422;2022-07-26T12:43:03;8.80;;;1.52;;
64842;SDS011;51310;52.198;5.422;2022-07-26T12:45:30;6.53;;;2.15;;
64842;SDS011;51310;52.198;5.422;2022-07-26T12:47:59;6.07;;;1.67;;
64842;SDS011;51310;52.198;5.422;2022-07-26T12:50:33;10.02;;;1.92;;
64842;SDS011;51310;52.198;5.422;2022-07-26T12:55:28;8.43;;;2.42;;
64842;SDS011;51310;52.198;5.422;2022-07-26T12:57:55;6.53;;;1.40;;
64842;SDS011;51310;52.198;5.422;2022-07-26T13:00:21;8.63;;;1.50;;
64842;SDS011;51310;52.198;5.422;2022-07-26T13:02:47;7.30;;;1.50;;
64842;SDS011;51310;52.198;5.422;2022-07-26T13:05:13;7.43;;;1.52;;
64842;SDS011;51310;52.198;5.422;2022-07-26T13:07:39;6.72;;;1.42;;
64842;SDS011;51310;52.198;5.422;2022-07-26T13:10:06;5.93;;;1.05;;
64842;SDS011;51310;52.198;5.422;2022-07-26T13:12:34;9.43;;;1.30;;
64842;SDS011;51310;52.198;5.422;2022-07-26T13:15:01;9.33;;;1.60;;
64842;SDS011;51310;52.198;5.422;2022-07-26T13:17:28;8.55;;;1.30;;
64842;SDS011;51310;52.198;5.422;2022-07-26T13:19:54;4.68;;;1.40;;
64842;SDS011;51310;52.198;5.422;2022-07-26T13:22:19;9.37;;;1.70;;
64842;SDS011;51310;52.198;5.422;2022-07-26T13:24:45;8.53;;;1.47;;
64842;SDS011;51310;52.198;5.422;2022-07-26T13:27:11;5.17;;;1.20;;
64842;SDS011;51310;52.198;5.422;2022-07-26T13:29:37;8.07;;;1.98;;
64842;SDS011;51310;52.198;5.422;2022-07-26T13:32:03;6.43;;;1.45;;
64842;SDS011;51310;52.198;5.422;2022-07-26T13:34:30;11.90;;;2.45;;
64842;SDS011;51310;52.198;5.422;2022-07-26T13:36:56;8.85;;;1.40;;
64842;SDS011;51310;52.198;5.422;2022-07-26T13:39:23;8.77;;;2.40;;
64842;SDS011;51310;52.198;5.422;2022-07-26T13:41:50;9.70;;;1.88;;
64842;SDS011;51310;52.198;5.422;2022-07-26T13:44:16;5.47;;;1.40;;
64842;SDS011;51310;52.198;5.422;2022-07-26T13:46:42;7.55;;;1.58;;
64842;SDS011;51310;52.198;5.422;2022-07-26T13:49:07;7.78;;;1.58;;
64842;SDS011;51310;52.198;5.422;2022-07-26T13:51:35;6.03;;;1.33;;
64842;SDS011;51310;52.198;5.422;2022-07-26T13:54:21;5.50;;;1.15;;
64842;SDS011;51310;52.198;5.422;2022-07-26T13:56:57;6.63;;;1.20;;
64842;SDS011;51310;52.198;5.422;2022-07-26T13:59:26;10.00;;;1.88;;
64842;SDS011;51310;52.198;5.422;2022-07-26T14:01:53;7.50;;;1.40;;
64842;SDS011;51310;52.198;5.422;2022-07-26T14:04:20;5.95;;;1.55;;
64842;SDS011;51310;52.198;5.422;2022-07-26T14:06:47;10.30;;;1.30;;
64842;SDS011;51310;52.198;5.422;2022-07-26T14:09:14;6.82;;;1.20;;
64842;SDS011;51310;52.198;5.422;2022-07-26T14:11:42;5.25;;;1.38;;
64842;SDS011;51310;52.198;5.422;2022-07-26T14:14:08;3.10;;;1.20;;
64842;SDS011;51310;52.198;5.422;2022-07-26T14:16:34;3.13;;;1.10;;
64842;SDS011;51310;52.198;5.422;2022-07-26T14:19:00;5.78;;;1.20;;
64842;SDS011;51310;52.198;5.422;2022-07-26T14:21:27;4.93;;;1.20;;
64842;SDS011;51310;52.198;5.422;2022-07-26T14:23:56;7.90;;;1.25;;
64842;SDS011;51310;52.198;5.422;2022-07-26T14:26:24;4.78;;;1.77;;
64842;SDS011;51310;52.198;5.422;2022-07-26T14:28:51;4.68;;;1.10;;
64842;SDS011;51310;52.198;5.422;2022-07-26T14:31:17;6.20;;;1.30;;
64842;SDS011;51310;52.198;5.422;2022-07-26T14:33:43;5.03;;;1.50;;
64842;SDS011;51310;52.198;5.422;2022-07-26T14:36:09;5.60;;;1.45;;
64842;SDS011;51310;52.198;5.422;2022-07-26T14:38:40;5.27;;;1.40;;
64842;SDS011;51310;52.198;5.422;2022-07-26T14:41:07;5.95;;;1.05;;
64842;SDS011;51310;52.198;5.422;2022-07-26T14:43:34;6.93;;;1.55;;
64842;SDS011;51310;52.198;5.422;2022-07-26T14:46:01;5.47;;;1.27;;
64842;SDS011;51310;52.198;5.422;2022-07-26T14:48:28;6.82;;;1.67;;
64842;SDS011;51310;52.198;5.422;2022-07-26T14:50:54;4.75;;;1.20;;
64842;SDS011;51310;52.198;5.422;2022-07-26T14:53:20;6.55;;;1.20;;
64842;SDS011;51310;52.198;5.422;2022-07-26T14:55:46;4.37;;;1.53;;
64842;SDS011;51310;52.198;5.422;2022-07-26T14:58:12;7.30;;;1.40;;
64842;SDS011;51310;52.198;5.422;2022-07-26T15:00:38;6.03;;;2.15;;
64842;SDS011;51310;52.198;5.422;2022-07-26T15:03:04;8.25;;;1.70;;
64842;SDS011;51310;52.198;5.422;2022-07-26T15:05:33;4.40;;;1.27;;
64842;SDS011;51310;52.198;5.422;2022-07-26T15:07:59;4.70;;;1.20;;
64842;SDS011;51310;52.198;5.422;2022-07-26T15:10:25;3.95;;;1.02;;
64842;SDS011;51310;52.198;5.422;2022-07-26T15:12:55;3.85;;;0.80;;
64842;SDS011;51310;52.198;5.422;2022-07-26T15:15:29;5.50;;;1.07;;
64842;SDS011;51310;52.198;5.422;2022-07-26T15:17:55;5.80;;;1.27;;
64842;SDS011;51310;52.198;5.422;2022-07-26T15:20:22;6.82;;;1.27;;
64842;SDS011;51310;52.198;5.422;2022-07-26T15:22:48;5.45;;;1.35;;
64842;SDS011;51310;52.198;5.422;2022-07-26T15:25:17;6.17;;;1.30;;
64842;SDS011;51310;52.198;5.422;2022-07-26T15:27:44;4.10;;;1.20;;